KSEM

Craig Field Airport

Selma, Alabama, USA
METAR KSEM 182135Z AUTO 00000KT 10SM -DZ CLR 24/23 A2999 RMK AO2 LTG DSNT NE-S
Observed Flight Rules
Aug-18 @ 21:35 UTC (18 minutes ago) Visual Flight Rules
Visibility Clouds Conditions
10 miles
  • Clear skies
  • Light Drizzle
Temperatures Readings
Current 24°C / 75°F
Dewpoint 23°C / 73°F
Humidity 94%
Altimeter 29.99" Hg
Pressure 1016 hPa
Elevation 51
METAR KSEM 182135Z AUTO 00000KT 10SM -DZ CLR 24/23 A2999 RMK AO2 LTG DSNT NE-S
Observed Flight Rules
Aug-18 @ 21:35 UTC
(18 minutes ago)
VFR
Clouds
  • Clear skies
Conditions
  • Light Drizzle
Temperature Dewpoint
24°C / 75°F 23°C / 73°F
Humidity Altimeter Pressure
94% 29.99" Hg 1016 hPa